This is the latest recevied weather packets stored in our database for station/object KG5MMT-15. If no packets are shown the sender has not sent any weather packets the latest 10 day(s).
| Time | Temp. | Humidity | Pressure | Rain* | Wind** | Luminosity | Snow |
|---|---|---|---|---|---|---|---|
| 1788618460 | 22.22° C | 49% | 0 hPa | 0 mm | - | - | - |
| 1788618160 | 21.11° C | 52% | 0 hPa | 0 mm | - | - | - |
| 1788617860 | 20.56° C | 57% | 0 hPa | 0 mm | - | - | - |
| 1788617560 | 20° C | 59% | 0 hPa | 0 mm | - | - | - |
| 1788617260 | 19.44° C | 60% | 0 hPa | 0 mm | - | - | - |
| 1788616960 | 18.89° C | 63% | 0 hPa | 0 mm | - | - | - |
| 1788616660 | 18.33° C | 64% | 0 hPa | 0 mm | - | - | - |
| 1788616360 | 17.78° C | 68% | 0 hPa | 0 mm | - | - | - |
| 1788616060 | 16.67° C | 70% | 0 hPa | 0 mm | - | - | - |
| 1788615760 | 16.11° C | 72% | 0 hPa | 0 mm | - | - | - |
| 1788615460 | 15.56° C | 74% | 0 hPa | 0 mm | - | - | - |
| 1788615160 | 15° C | 77% | 0 hPa | 0 mm | - | - | - |
| 1788614860 | 14.44° C | 78% | 0 hPa | 0 mm | - | - | - |
| 1788614560 | 13.89° C | 79% | 0 hPa | 0 mm | - | - | - |
| 1788614260 | 14.44° C | 78% | 0 hPa | 0 mm | - | - | - |
| 1788613960 | 14.44° C | 79% | 0 hPa | 0 mm | - | - | - |
| 1788613660 | 14.44° C | 75% | 0 hPa | 0 mm | - | - | - |
| 1788613360 | 14.44° C | 76% | 0 hPa | 0 mm | - | - | - |
| 1788613060 | 15° C | 74% | 0 hPa | 0 mm | - | - | - |
| 1788612760 | 15° C | 74% | 0 hPa | 0 mm | - | - | - |
| 1788612460 | 14.44° C | 74% | 0 hPa | 0 mm | - | - | - |
| 1788612160 | 15° C | 74% | 0 hPa | 0 mm | - | - | - |
| 1788611860 | 15° C | 74% | 0 hPa | 0 mm | - | - | - |
| 1788611560 | 14.44° C | 75% | 0 hPa | 0 mm | - | - | - |
| 1788611260 | 15° C | 75% | 0 hPa | 0 mm | - | - | - |
* Rain latest hour (hover to see other rain measurements)
** Current wind speed in m/s (hover to see current wind gust speed)